Time;durP1;ratioP1;P1;durP2;ratioP2;P2;SDS_P1;SDS_P2;PMS_P1;PMS_P2;Temp;Humidity;BMP_temperature;BMP_pressure;BME280_temperature;BME280_humidity;BME280_pressure;Samples;Min_cycle;Max_cycle;Signal;HPM_P1;HPM_P2
2021/12/14 00:00:39;;;;;;;12.57;5.32;;;;;;;6.83;100.00;99801.63;4892495;29;20107;-87
2021/12/14 00:03:05;;;;;;;13.63;6.35;;;;;;;6.85;100.00;99799.66;4907857;29;20043;-85
2021/12/14 00:05:32;;;;;;;13.15;6.50;;;;;;;6.82;100.00;99795.59;4913233;29;21422;-87
2021/12/14 00:08:01;;;;;;;15.90;7.18;;;;;;;6.82;100.00;99807.81;4915702;29;20092;-89
2021/12/14 00:13:17;;;;;;;14.40;7.50;;;;;;;6.84;100.00;99798.88;4914076;29;20040;-88
2021/12/14 00:15:47;;;;;;;14.70;8.52;;;;;;;6.87;100.00;99789.91;4920736;29;20094;-88
2021/12/14 00:18:13;;;;;;;13.32;7.90;;;;;;;6.91;100.00;99787.81;4910193;29;20114;-88
2021/12/14 00:20:47;;;;;;;15.48;9.00;;;;;;;6.95;100.00;99779.53;4912084;29;20032;-88
2021/12/14 00:25:47;;;;;;;18.75;9.35;;;;;;;6.95;100.00;99776.94;4912901;29;20038;-87
2021/12/14 00:28:19;;;;;;;16.52;9.70;;;;;;;6.90;100.00;99776.56;4895870;29;20032;-88
2021/12/14 00:30:50;;;;;;;18.23;10.27;;;;;;;6.81;100.00;99753.97;4888902;29;20122;-89
2021/12/14 00:33:20;;;;;;;15.45;8.90;;;;;;;6.96;100.00;99768.13;4905677;29;20106;-89
2021/12/14 00:35:49;;;;;;;15.23;9.13;;;;;;;6.92;100.00;99774.63;4902134;29;20032;-86
2021/12/14 00:38:21;;;;;;;15.57;8.32;;;;;;;6.91;100.00;99773.00;4911094;29;20409;-86
2021/12/14 00:40:54;;;;;;;14.15;8.32;;;;;;;6.86;100.00;99752.56;4908049;29;20035;-87
2021/12/14 00:43:22;;;;;;;15.77;8.15;;;;;;;6.95;100.00;99774.31;4925749;29;20490;-86
2021/12/14 00:45:48;;;;;;;12.30;7.72;;;;;;;6.98;100.00;99779.22;4911923;29;20071;-88
2021/12/14 00:48:14;;;;;;;15.80;9.05;;;;;;;6.99;100.00;99780.84;4927206;29;20051;-88
2021/12/14 00:50:45;;;;;;;14.73;9.15;;;;;;;6.94;100.00;99772.69;4896737;29;20442;-87
2021/12/14 00:53:12;;;;;;;19.83;10.07;;;;;;;6.94;100.00;99761.41;4907261;29;20035;-87
2021/12/14 00:55:43;;;;;;;17.65;10.30;;;;;;;6.97;100.00;99764.53;4891603;29;20099;-88
2021/12/14 00:58:10;;;;;;;18.38;9.63;;;;;;;6.94;100.00;99748.34;4892134;29;20031;-87
2021/12/14 01:00:41;;;;;;;17.00;8.90;;;;;;;6.92;100.00;99760.75;4909438;29;20032;-86
2021/12/14 01:03:09;;;;;;;16.02;9.40;;;;;;;6.83;100.00;99757.25;4900627;29;20034;-86
2021/12/14 01:05:39;;;;;;;17.45;8.88;;;;;;;6.90;100.00;99771.34;4908258;29;20042;-86
2021/12/14 01:08:08;;;;;;;15.82;9.80;;;;;;;6.85;100.00;99768.34;4907655;29;20043;-90
2021/12/14 01:10:51;;;;;;;15.68;7.95;;;;;;;6.93;100.00;99770.19;4927197;29;20430;-91
2021/12/14 01:13:21;;;;;;;18.67;9.02;;;;;;;6.91;100.00;99778.22;4909004;29;20056;-89
2021/12/14 01:16:13;;;;;;;14.07;8.52;;;;;;;6.82;100.00;99766.06;4912971;29;20024;-90
2021/12/14 01:18:48;;;;;;;16.77;9.40;;;;;;;6.91;100.00;99778.22;4908359;29;20046;-89
2021/12/14 01:24:21;;;;;;;17.58;9.85;;;;;;;6.82;100.00;99742.56;4912369;29;20043;-86
2021/12/14 01:26:49;;;;;;;17.60;9.77;;;;;;;6.92;100.00;99752.91;4897155;29;20061;-88
2021/12/14 01:29:16;;;;;;;18.15;9.55;;;;;;;6.91;100.00;99752.09;4891945;29;20027;-87
2021/12/14 01:31:44;;;;;;;17.10;9.60;;;;;;;6.89;100.00;99754.06;4911574;29;20711;-89
2021/12/14 01:34:20;;;;;;;22.33;10.90;;;;;;;6.91;100.00;99757.31;4932362;29;20023;-87
2021/12/14 01:36:51;;;;;;;24.20;12.10;;;;;;;6.90;100.00;99771.34;4916516;29;20455;-89
2021/12/14 01:42:22;;;;;;;21.80;11.52;;;;;;;6.93;100.00;99773.66;4910922;29;20858;-90
2021/12/14 01:44:53;;;;;;;24.60;11.90;;;;;;;6.89;100.00;99768.88;4905828;29;20104;-89
2021/12/14 01:47:27;;;;;;;27.40;12.75;;;;;;;6.91;100.00;99778.22;4922213;29;20040;-89
2021/12/14 01:49:53;;;;;;;33.67;14.05;;;;;;;6.92;100.00;99779.84;4907950;29;20078;-88
2021/12/14 01:52:26;;;;;;;36.15;15.48;;;;;;;6.82;100.00;99760.84;4893226;29;20055;-89
2021/12/14 01:54:57;;;;;;;36.05;15.85;;;;;;;6.90;100.00;99773.97;4916056;29;20047;-89
2021/12/14 01:57:26;;;;;;;38.08;16.88;;;;;;;6.87;100.00;99766.41;4922597;29;20036;-88
2021/12/14 01:59:56;;;;;;;35.08;15.18;;;;;;;6.85;100.00;99776.19;4934392;29;20039;-89
2021/12/14 02:02:40;;;;;;;29.17;12.40;;;;;;;6.83;100.00;99778.97;4916683;29;20036;-90
2021/12/14 02:05:18;;;;;;;31.05;14.32;;;;;;;6.77;100.00;99776.13;4914922;29;20028;-88
2021/12/14 02:07:44;;;;;;;30.50;12.50;;;;;;;6.65;100.00;99778.97;4909382;29;20048;-90
2021/12/14 02:10:18;;;;;;;24.75;10.80;;;;;;;6.50;100.00;99785.72;4897453;29;20094;-90
2021/12/14 02:12:44;;;;;;;24.25;10.73;;;;;;;6.43;100.00;99791.50;4939449;29;20027;-89
2021/12/14 02:15:33;;;;;;;20.63;10.77;;;;;;;6.41;100.00;99797.84;4910660;29;20048;-89
2021/12/14 02:18:08;;;;;;;25.52;11.05;;;;;;;6.38;100.00;99777.25;4942548;29;20066;-91
2021/12/14 02:20:37;;;;;;;23.02;10.80;;;;;;;6.55;100.00;99783.47;4910823;29;20045;-89
2021/12/14 02:23:06;;;;;;;23.88;11.23;;;;;;;6.66;100.00;99793.66;4904777;29;20036;-89
2021/12/14 02:25:32;;;;;;;28.85;12.48;;;;;;;6.64;100.00;99777.31;4910802;29;20494;-89
2021/12/14 02:28:04;;;;;;;25.98;10.80;;;;;;;6.70;100.00;99787.19;4923330;29;20043;-89
2021/12/14 02:30:30;;;;;;;22.90;10.38;;;;;;;6.72;100.00;99795.69;4907143;29;20058;-89
2021/12/14 02:33:12;;;;;;;23.88;10.07;;;;;;;6.66;100.00;99780.59;4922759;29;20075;-88
2021/12/14 02:35:38;;;;;;;22.98;9.23;;;;;;;6.73;100.00;99796.47;4910375;29;20031;-89
2021/12/14 02:38:11;;;;;;;31.75;10.75;;;;;;;6.74;100.00;99797.31;4909471;29;20115;-90
2021/12/14 02:41:01;;;;;;;28.02;10.25;;;;;;;6.67;100.00;99797.91;4909363;29;20039;-89
2021/12/14 02:43:42;;;;;;;21.88;8.30;;;;;;;6.75;100.00;99819.81;4919322;29;20036;-89
2021/12/14 02:46:08;;;;;;;24.52;9.43;;;;;;;6.77;100.00;99812.66;4913916;29;20050;-89
2021/12/14 02:48:35;;;;;;;26.00;9.80;;;;;;;6.72;100.00;99813.94;4899762;29;20114;-89
2021/12/14 02:51:12;;;;;;;25.65;10.52;;;;;;;6.75;100.00;99819.81;4914408;29;20047;-88
2021/12/14 02:53:39;;;;;;;22.30;9.60;;;;;;;6.76;100.00;99813.63;4901655;29;20478;-88
2021/12/14 02:56:17;;;;;;;26.23;10.20;;;;;;;6.67;100.00;99799.69;4907074;29;20031;-90
2021/12/14 02:58:45;;;;;;;27.42;10.85;;;;;;;6.80;100.00;99809.75;4919708;29;20126;-88
2021/12/14 03:01:13;;;;;;;31.60;11.25;;;;;;;6.77;100.00;99803.03;4916223;29;20035;-89
2021/12/14 03:03:39;;;;;;;29.98;11.25;;;;;;;6.79;100.00;99798.50;4911500;29;20111;-89
2021/12/14 03:06:09;;;;;;;20.05;9.52;;;;;;;6.86;100.00;99806.53;4922524;29;20083;-88
2021/12/14 03:08:43;;;;;;;35.88;12.10;;;;;;;6.81;100.00;99803.56;4914260;29;20028;-91
2021/12/14 03:11:10;;;;;;;26.05;10.18;;;;;;;6.81;100.00;99787.91;4900083;29;20495;-90
2021/12/14 03:13:44;;;;;;;27.00;9.65;;;;;;;6.84;100.00;99787.59;4903030;29;20031;-91
2021/12/14 03:16:16;;;;;;;26.15;9.70;;;;;;;6.81;100.00;99780.06;4900380;29;20039;-88
2021/12/14 03:18:45;;;;;;;24.73;9.15;;;;;;;6.82;100.00;99777.31;4927409;29;20396;-91
2021/12/14 03:21:17;;;;;;;28.60;9.90;;;;;;;6.78;100.00;99762.94;4915811;29;20470;-90
2021/12/14 03:23:47;;;;;;;29.17;9.88;;;;;;;6.79;100.00;99763.75;4928764;29;20035;-88
2021/12/14 03:26:17;;;;;;;29.80;10.15;;;;;;;6.83;100.00;99767.69;4910625;29;20390;-87
2021/12/14 03:28:47;;;;;;;48.15;9.48;;;;;;;6.81;100.00;99762.63;4930801;29;20038;-89
2021/12/14 03:31:21;;;;;;;30.83;9.55;;;;;;;6.85;100.00;99776.19;4926227;29;20032;-89
2021/12/14 03:34:11;;;;;;;35.63;9.35;;;;;;;6.77;100.00;99770.91;4908398;29;20498;-89
2021/12/14 03:36:47;;;;;;;29.63;9.30;;;;;;;6.70;100.00;99771.53;4929512;29;20390;-90
2021/12/14 03:39:30;;;;;;;29.20;9.25;;;;;;;6.68;100.00;99767.41;4912020;29;20095;-88
2021/12/14 03:42:05;;;;;;;21.80;7.77;;;;;;;6.75;100.00;99770.25;4911027;29;20051;-87
2021/12/14 03:44:56;;;;;;;33.08;9.45;;;;;;;6.72;100.00;99769.59;4910750;29;20031;-86
2021/12/14 03:47:39;;;;;;;34.63;10.10;;;;;;;6.70;100.00;99758.47;4909874;29;20078;-90
2021/12/14 03:50:13;;;;;;;29.60;9.68;;;;;;;6.66;100.00;99764.16;4931558;29;20036;-87
2021/12/14 03:52:41;;;;;;;44.28;10.82;;;;;;;6.61;100.00;99755.97;4896958;29;20099;-88
2021/12/14 03:55:36;;;;;;;36.28;10.73;;;;;;;6.67;100.00;99774.41;4916849;29;20032;-89
2021/12/14 03:58:07;;;;;;;35.40;10.75;;;;;;;6.66;100.00;99761.53;4907816;29;20044;-89
2021/12/14 04:00:38;;;;;;;39.60;11.02;;;;;;;6.56;100.00;99743.38;4914180;29;20028;-88
2021/12/14 04:03:10;;;;;;;140.43;14.70;;;;;;;6.68;100.00;99759.59;4908143;29;20037;-87
2021/12/14 04:05:36;;;;;;;31.60;10.98;;;;;;;6.70;100.00;99770.69;4914621;29;20139;-88
2021/12/14 04:08:04;;;;;;;72.55;12.88;;;;;;;6.68;100.00;99763.03;4906348;29;20122;-89
2021/12/14 04:10:33;;;;;;;44.85;10.55;;;;;;;6.74;100.00;99766.81;4926102;29;20461;-90
2021/12/14 04:12:59;;;;;;;98.22;12.52;;;;;;;6.68;100.00;99756.97;4897465;29;20036;-89
2021/12/14 04:15:26;;;;;;;267.77;20.63;;;;;;;6.60;100.00;99751.72;4901156;29;20057;-90
2021/12/14 04:17:53;;;;;;;125.68;14.15;;;;;;;6.69;100.00;99756.00;4913605;29;20446;-90
2021/12/14 04:20:23;;;;;;;74.25;11.45;;;;;;;6.75;100.00;99762.44;4917978;29;20054;-89
2021/12/14 04:22:49;;;;;;;34.80;11.07;;;;;;;6.75;100.00;99751.97;4914276;29;20038;-90
2021/12/14 04:25:26;;;;;;;37.63;10.65;;;;;;;6.78;100.00;99764.72;4915146;29;20042;-89
2021/12/14 04:27:53;;;;;;;27.75;11.60;;;;;;;6.65;100.00;99758.09;4901516;29;20123;-89
2021/12/14 04:30:22;;;;;;;22.95;9.48;;;;;;;6.63;100.00;99752.22;4900395;29;20035;-89
2021/12/14 04:32:51;;;;;;;35.03;12.55;;;;;;;6.57;100.00;99755.44;4933067;29;20039;-90
2021/12/14 04:35:18;;;;;;;28.83;10.82;;;;;;;6.41;100.00;99746.50;4890544;29;20087;-87
2021/12/14 04:37:50;;;;;;;28.50;9.40;;;;;;;6.36;100.00;99759.16;4925188;29;20074;-88
2021/12/14 04:54:08;;;;;;;20.17;8.20;;;;;;;6.29;100.00;99771.19;4926544;29;20043;-91
2021/12/14 04:56:37;;;;;;;24.50;8.10;;;;;;;6.39;100.00;99779.72;4896583;29;20039;-87
2021/12/14 04:59:11;;;;;;;20.77;8.25;;;;;;;6.40;100.00;99776.16;4925282;29;20048;-90
2021/12/14 05:01:41;;;;;;;11.68;5.13;;;;;;;6.53;100.00;99780.19;4910945;29;20031;-89
2021/12/14 05:04:11;;;;;;;13.20;6.43;;;;;;;6.56;100.00;99779.88;4924706;29;20035;-87
2021/12/14 05:09:23;;;;;;;18.70;8.55;;;;;;;6.61;100.00;99777.63;4909822;29;20110;-91
2021/12/14 05:12:07;;;;;;;19.10;8.15;;;;;;;6.62;100.00;99757.59;4908260;29;20036;-89
2021/12/14 05:14:36;;;;;;;15.00;7.25;;;;;;;6.58;100.00;99757.06;4933766;29;20039;-88
2021/12/14 05:17:08;;;;;;;18.45;7.63;;;;;;;6.61;100.00;99754.16;4914098;29;20043;-89
2021/12/14 05:19:38;;;;;;;23.97;9.63;;;;;;;6.58;100.00;99744.03;4929545;29;20078;-89
2021/12/14 05:22:18;;;;;;;22.45;9.75;;;;;;;6.54;100.00;99735.69;4915248;29;20286;-90
2021/12/14 05:24:49;;;;;;;18.08;8.70;;;;;;;6.51;100.00;99735.97;4911451;29;20027;-88
2021/12/14 05:27:26;;;;;;;18.17;8.90;;;;;;;6.41;100.00;99728.25;4918674;29;20042;-88
2021/12/14 05:29:52;;;;;;;19.52;8.02;;;;;;;6.45;100.00;99739.19;4895927;29;20032;-91
2021/12/14 05:32:18;;;;;;;21.73;9.25;;;;;;;6.36;100.00;99727.88;4900290;29;20039;-90
2021/12/14 05:34:49;;;;;;;20.48;8.88;;;;;;;6.39;100.00;99735.41;4902922;29;20035;-89
2021/12/14 05:37:24;;;;;;;21.63;9.15;;;;;;;6.34;100.00;99737.66;4926190;29;20054;-87
2021/12/14 05:39:58;;;;;;;22.45;8.60;;;;;;;6.19;100.00;99731.31;4916850;29;20032;-89
2021/12/14 05:45:15;;;;;;;26.48;9.85;;;;;;;5.94;100.00;99708.41;4927244;29;20110;-90
2021/12/14 05:47:51;;;;;;;23.27;9.70;;;;;;;6.06;100.00;99753.34;4912272;29;20426;-88
2021/12/14 05:50:24;;;;;;;22.83;9.57;;;;;;;6.07;100.00;99749.75;4901329;29;20497;-88
2021/12/14 05:52:49;;;;;;;23.10;9.55;;;;;;;5.98;100.00;99751.44;4913997;29;20043;-90
2021/12/14 05:55:20;;;;;;;23.23;9.60;;;;;;;5.91;100.00;99755.59;4923212;29;20028;-89
2021/12/14 05:57:46;;;;;;;24.13;9.35;;;;;;;5.95;100.00;99756.13;4903532;29;20051;-90
2021/12/14 06:00:15;;;;;;;25.08;10.23;;;;;;;6.01;100.00;99766.00;4924212;29;20032;-88
2021/12/14 06:02:40;;;;;;;22.08;9.48;;;;;;;6.00;100.00;99753.91;4899329;29;20047;-91
2021/12/14 06:05:13;;;;;;;22.90;9.65;;;;;;;6.00;100.00;99759.09;4904050;29;20394;-88
2021/12/14 06:07:39;;;;;;;20.30;9.23;;;;;;;6.06;100.00;99757.75;4917570;29;20103;-88
2021/12/14 06:10:06;;;;;;;25.60;9.85;;;;;;;6.09;100.00;99771.31;4899657;29;20024;-89
2021/12/14 06:12:34;;;;;;;23.50;10.00;;;;;;;6.07;100.00;99765.41;4896338;29;20032;-89
2021/12/14 06:15:01;;;;;;;21.20;9.68;;;;;;;6.01;100.00;99768.59;4899687;29;20036;-90
2021/12/14 06:17:37;;;;;;;26.25;10.35;;;;;;;5.94;100.00;99759.72;4893400;29;20045;-88
2021/12/14 06:20:14;;;;;;;22.20;8.80;;;;;;;5.98;100.00;99768.88;4931187;29;20038;-89
2021/12/14 06:22:42;;;;;;;27.80;11.20;;;;;;;5.93;100.00;99771.09;4906207;29;20031;-89
2021/12/14 06:25:18;;;;;;;28.25;10.85;;;;;;;5.84;100.00;99768.38;4897144;29;20028;-89
2021/12/14 06:27:46;;;;;;;21.70;9.50;;;;;;;5.89;100.00;99769.72;4914152;29;20043;-88
2021/12/14 06:30:19;;;;;;;22.15;9.30;;;;;;;5.84;100.00;99764.97;4890627;29;20031;-88
2021/12/14 06:32:56;;;;;;;31.00;11.18;;;;;;;5.94;100.00;99783.16;4906634;29;20036;-91
2021/12/14 06:35:28;;;;;;;28.35;11.30;;;;;;;6.06;100.00;99781.19;4928033;29;20028;-87
2021/12/14 06:38:22;;;;;;;23.35;10.05;;;;;;;6.02;100.00;99783.25;4905215;29;20060;-89
2021/12/14 06:41:06;;;;;;;22.48;9.63;;;;;;;6.02;100.00;99792.88;4907549;29;20040;-88
2021/12/14 06:43:43;;;;;;;23.45;9.90;;;;;;;6.04;100.00;99794.38;4907921;29;20040;-89
2021/12/14 06:46:15;;;;;;;17.77;9.02;;;;;;;6.09;100.00;99788.72;4913620;29;20115;-87
2021/12/14 06:48:45;;;;;;;24.83;10.85;;;;;;;6.17;100.00;99811.44;4909986;29;20111;-88
2021/12/14 06:51:21;;;;;;;19.65;9.85;;;;;;;6.18;100.00;99813.88;4910749;29;20095;-87
2021/12/14 06:53:49;;;;;;;20.20;10.13;;;;;;;6.21;100.00;99811.00;4929915;29;20038;-87
2021/12/14 06:56:16;;;;;;;20.58;10.23;;;;;;;6.34;100.00;99823.69;4929273;29;20459;-87
2021/12/14 06:58:55;;;;;;;18.75;9.98;;;;;;;6.25;100.00;99806.31;4895436;29;20131;-88
2021/12/14 07:01:27;;;;;;;23.38;11.10;;;;;;;6.23;100.00;99808.25;4910796;29;20032;-88
2021/12/14 07:03:59;;;;;;;31.63;13.73;;;;;;;6.22;100.00;99820.47;4914737;29;20035;-88
2021/12/14 07:06:27;;;;;;;25.65;12.77;;;;;;;6.25;100.00;99817.56;4915261;29;20028;-88
2021/12/14 07:08:56;;;;;;;29.05;13.95;;;;;;;6.27;100.00;99812.19;4910917;29;20133;-89
2021/12/14 07:11:23;;;;;;;27.77;13.65;;;;;;;6.32;100.00;99817.81;4926223;29;20039;-89
2021/12/14 07:13:51;;;;;;;26.05;14.07;;;;;;;6.38;100.00;99827.63;4896371;29;20032;-87
2021/12/14 07:16:30;;;;;;;38.65;19.10;;;;;;;6.46;100.00;99831.28;4927618;29;20039;-86
2021/12/14 07:19:01;;;;;;;38.30;18.63;;;;;;;6.37;100.00;99797.31;4896127;29;20044;-88
2021/12/14 07:21:48;;;;;;;38.83;19.85;;;;;;;6.52;100.00;99815.06;4910437;29;20566;-86
2021/12/14 07:24:23;;;;;;;33.20;16.92;;;;;;;6.52;100.00;99820.28;4923214;29;20043;-87
2021/12/14 07:27:12;;;;;;;33.17;15.75;;;;;;;6.49;100.00;99821.38;4930597;29;20092;-87
2021/12/14 07:29:37;;;;;;;30.95;15.60;;;;;;;6.54;100.00;99813.13;4928080;29;20028;-88
2021/12/14 07:32:04;;;;;;;32.70;16.08;;;;;;;6.50;100.00;99809.19;4912767;29;20458;-87
2021/12/14 07:34:30;;;;;;;32.78;15.30;;;;;;;6.48;100.00;99811.09;4908004;29;20100;-84
2021/12/14 07:36:56;;;;;;;27.60;13.20;;;;;;;6.48;100.00;99809.31;4897564;29;20052;-86
2021/12/14 07:39:21;;;;;;;31.70;14.23;;;;;;;6.49;100.00;99803.13;4895126;29;20043;-88
2021/12/14 07:41:58;;;;;;;28.95;13.57;;;;;;;6.41;100.00;99796.03;4917246;29;20024;-87
2021/12/14 07:44:37;;;;;;;31.92;15.20;;;;;;;6.48;100.00;99805.88;4909442;29;20036;-84
2021/12/14 07:47:08;;;;;;;38.83;16.27;;;;;;;6.42;100.00;99799.47;4908146;29;20410;-85
2021/12/14 07:49:55;;;;;;;30.58;14.75;;;;;;;6.33;100.00;99803.81;4895910;29;20035;-85
2021/12/14 07:52:41;;;;;;;30.75;13.07;;;;;;;6.31;100.00;99810.97;4893709;29;20032;-87
2021/12/14 07:55:18;;;;;;;37.72;16.80;;;;;;;6.16;100.00;99804.59;4914815;29;20035;-87
2021/12/14 07:57:46;;;;;;;34.75;15.05;;;;;;;6.02;100.00;99796.28;4902297;29;20047;-85
2021/12/14 08:00:26;;;;;;;34.97;15.48;;;;;;;6.05;100.00;99801.22;4907584;29;20036;-87
2021/12/14 08:02:54;;;;;;;39.97;17.58;;;;;;;6.07;100.00;99811.50;4925434;29;20067;-87
2021/12/14 08:05:34;;;;;;;34.28;15.75;;;;;;;6.07;100.00;99822.72;4928411;29;20099;-89
2021/12/14 08:08:13;;;;;;;36.58;16.10;;;;;;;6.04;100.00;99822.22;4925934;29;20040;-89
2021/12/14 08:10:45;;;;;;;35.03;15.40;;;;;;;5.96;100.00;99809.88;4917900;29;20582;-87
2021/12/14 08:13:22;;;;;;;31.67;13.70;;;;;;;6.10;100.00;99819.88;4921516;29;20126;-86
2021/12/14 08:15:54;;;;;;;21.83;9.45;;;;;;;6.27;100.00;99833.03;4900892;29;20079;-87
2021/12/14 08:18:30;;;;;;;21.88;10.05;;;;;;;6.28;100.00;99832.91;4904510;29;20107;-88
2021/12/14 08:21:04;;;;;;;21.35;9.30;;;;;;;6.22;100.00;99835.28;4898461;29;20036;-90
2021/12/14 08:23:36;;;;;;;19.85;9.00;;;;;;;6.24;100.00;99838.56;4897728;29;20490;-85
2021/12/14 08:26:12;;;;;;;16.02;7.60;;;;;;;6.24;100.00;99842.00;4911086;29;20044;-86
2021/12/14 08:28:48;;;;;;;19.10;7.53;;;;;;;6.33;100.00;99837.69;4909515;29;20032;-86
2021/12/14 08:31:14;;;;;;;15.93;6.47;;;;;;;6.38;100.00;99845.06;4902013;29;20044;-81
2021/12/14 08:33:40;;;;;;;10.93;5.70;;;;;;;6.42;100.00;99836.81;4912427;29;20571;-86
2021/12/14 08:36:10;;;;;;;14.45;5.88;;;;;;;6.27;100.00;99822.63;4918656;29;20149;-86
2021/12/14 08:38:36;;;;;;;15.38;6.07;;;;;;;6.19;100.00;99822.53;4885565;29;20139;-87
2021/12/14 08:41:27;;;;;;;12.52;5.75;;;;;;;6.23;100.00;99819.50;4901734;29;20120;-88
2021/12/14 08:43:54;;;;;;;20.17;8.05;;;;;;;6.16;100.00;99809.81;4909417;29;20051;-90
2021/12/14 08:46:28;;;;;;;10.75;5.50;;;;;;;6.27;100.00;99814.78;4891513;29;20040;-87
2021/12/14 08:48:57;;;;;;;13.00;5.93;;;;;;;6.26;100.00;99813.16;4930291;29;20032;-86
2021/12/14 08:51:30;;;;;;;10.73;5.20;;;;;;;6.31;100.00;99833.59;4899937;29;20454;-83
2021/12/14 08:54:03;;;;;;;11.93;5.18;;;;;;;6.41;100.00;99850.81;4929976;29;20036;-86
2021/12/14 08:56:33;;;;;;;11.55;5.50;;;;;;;6.39;100.00;99842.31;4885369;29;20561;-85
2021/12/14 08:59:04;;;;;;;10.40;5.30;;;;;;;6.35;100.00;99851.41;4885655;29;20044;-87
2021/12/14 09:01:31;;;;;;;12.30;5.32;;;;;;;6.48;100.00;99845.81;4916602;29;20032;-84
2021/12/14 09:04:10;;;;;;;12.48;5.70;;;;;;;6.53;100.00;99848.00;4915326;29;20375;-85
2021/12/14 09:06:39;;;;;;;13.02;5.78;;;;;;;6.50;100.00;99840.47;4913369;29;20427;-85
2021/12/14 09:09:10;;;;;;;12.15;5.40;;;;;;;6.37;100.00;99826.00;4909549;29;20513;-90
2021/12/14 09:11:41;;;;;;;11.00;5.70;;;;;;;6.47;100.00;99840.75;4907358;29;20133;-90
2021/12/14 09:14:09;;;;;;;15.07;5.65;;;;;;;6.47;100.00;99822.50;4924938;29;20107;-90
2021/12/14 09:16:37;;;;;;;11.50;5.30;;;;;;;6.60;100.00;99828.16;4908596;29;20035;-88
2021/12/14 09:19:39;;;;;;;11.15;5.80;;;;;;;6.73;100.00;99840.84;4906282;29;20490;-87
2021/12/14 09:22:12;;;;;;;10.95;5.50;;;;;;;6.68;100.00;99827.44;4915526;29;20051;-86
2021/12/14 09:24:39;;;;;;;11.70;6.45;;;;;;;6.78;100.00;99832.56;4924202;29;20509;-90
2021/12/14 09:27:13;;;;;;;12.77;6.38;;;;;;;6.75;100.00;99830.25;4923074;29;20039;-90
2021/12/14 09:29:39;;;;;;;13.63;5.85;;;;;;;6.77;100.00;99834.34;4938065;29;20036;-90
2021/12/14 09:32:08;;;;;;;11.60;5.78;;;;;;;6.87;100.00;99842.09;4911034;29;20101;-87
2021/12/14 09:34:36;;;;;;;14.10;6.22;;;;;;;6.90;100.00;99843.59;4894323;29;20071;-87
2021/12/14 09:37:04;;;;;;;10.57;5.68;;;;;;;6.88;100.00;99822.88;4905597;29;20060;-89
2021/12/14 09:39:37;;;;;;;10.68;5.68;;;;;;;7.28;100.00;99833.75;4926426;29;20508;-86
2021/12/14 09:42:07;;;;;;;13.00;6.60;;;;;;;7.02;100.00;99810.25;4892462;29;20100;-87
2021/12/14 09:44:36;;;;;;;13.82;7.30;;;;;;;7.26;100.00;99828.69;4891249;29;20055;-86
2021/12/14 09:47:17;;;;;;;19.05;10.45;;;;;;;7.08;100.00;99854.03;4890473;29;20044;-87
2021/12/14 09:49:45;;;;;;;21.40;10.63;;;;;;;7.06;100.00;99842.91;4903160;29;20028;-89
2021/12/14 09:52:28;;;;;;;28.75;13.95;;;;;;;6.98;100.00;99836.66;4910629;29;20397;-88
2021/12/14 09:54:55;;;;;;;35.50;16.13;;;;;;;7.05;100.00;99846.47;4906632;29;20043;-86
2021/12/14 09:57:32;;;;;;;43.20;21.70;;;;;;;7.13;100.00;99857.81;4914383;29;20131;-87
2021/12/14 10:00:00;;;;;;;39.13;19.58;;;;;;;7.10;100.00;99850.28;4909808;29;20039;-91
2021/12/14 10:02:33;;;;;;;30.77;14.88;;;;;;;7.22;100.00;99871.75;4903517;29;20039;-88
2021/12/14 10:05:11;;;;;;;35.38;18.02;;;;;;;7.05;100.00;99842.09;4905436;29;20066;-88
2021/12/14 10:07:38;;;;;;;29.92;15.68;;;;;;;7.19;100.00;99851.16;4920721;29;20032;-88
2021/12/14 10:10:11;;;;;;;22.20;12.45;;;;;;;7.28;100.00;99878.16;4903499;29;20047;-90
2021/12/14 10:12:49;;;;;;;15.75;7.82;;;;;;;7.07;100.00;99839.31;4914735;29;20040;-90
2021/12/14 10:15:49;;;;;;;11.57;6.07;;;;;;;7.18;100.00;99846.91;4905603;29;20044;-89
2021/12/14 10:18:27;;;;;;;11.25;6.25;;;;;;;7.32;100.00;99866.41;4901087;29;20056;-86
2021/12/14 10:21:08;;;;;;;13.23;7.00;;;;;;;7.36;100.00;99872.16;4900118;29;20036;-92
2021/12/14 10:23:37;;;;;;;13.52;7.03;;;;;;;7.24;100.00;99856.75;4903949;29;20028;-90
2021/12/14 10:26:04;;;;;;;13.60;7.28;;;;;;;7.46;100.00;99883.31;4894798;29;20040;-89
2021/12/14 10:28:33;;;;;;;18.15;9.40;;;;;;;7.46;100.00;99879.91;4916438;29;20115;-87
2021/12/14 10:31:06;;;;;;;22.90;13.57;;;;;;;7.50;100.00;99866.41;4897832;29;20035;-87
2021/12/14 10:33:33;;;;;;;18.60;12.35;;;;;;;7.43;100.00;99849.69;4928174;29;20036;-87
2021/12/14 10:36:12;;;;;;;26.55;16.92;;;;;;;7.38;100.00;99846.72;4899056;29;20035;-86
2021/12/14 10:39:00;;;;;;;26.23;16.83;;;;;;;7.47;100.00;99845.81;4912594;29;20055;-89
2021/12/14 10:44:09;;;;;;;17.05;10.60;;;;;;;7.45;100.00;99852.16;4909980;29;20064;-85
2021/12/14 10:46:38;;;;;;;16.25;10.82;;;;;;;7.64;100.00;99856.31;4911402;29;20071;-86
2021/12/14 10:49:05;;;;;;;18.95;9.98;;;;;;;7.76;100.00;99860.31;4899032;29;20047;-87
2021/12/14 10:51:36;;;;;;;19.50;11.40;;;;;;;7.72;100.00;99861.63;4902122;29;20520;-85
2021/12/14 10:54:06;;;;;;;17.90;10.95;;;;;;;7.61;100.00;99835.75;4899501;29;20501;-86
2021/12/14 10:56:39;;;;;;;16.50;9.75;;;;;;;7.86;100.00;99861.03;4899671;29;20032;-85
2021/12/14 10:59:08;;;;;;;15.32;8.68;;;;;;;7.82;100.00;99858.88;4901898;29;20210;-84
2021/12/14 11:01:35;;;;;;;14.40;7.70;;;;;;;7.91;100.00;99862.38;4913951;29;20106;-87
2021/12/14 11:04:06;;;;;;;17.35;8.48;;;;;;;7.79;100.00;99838.28;4917817;29;20122;-86
2021/12/14 11:06:34;;;;;;;15.07;8.32;;;;;;;7.91;100.00;99828.38;4922395;29;20065;-88
2021/12/14 11:11:41;;;;;;;10.02;6.35;;;;;;;8.44;100.00;99821.97;4917694;29;20042;-85
2021/12/14 11:14:10;;;;;;;9.43;6.07;;;;;;;8.80;100.00;99825.31;4928681;29;20474;-84
2021/12/14 11:19:58;;;;;;;10.43;6.95;;;;;;;9.32;100.00;99834.59;4910380;29;20036;-84
2021/12/14 11:22:32;;;;;;;8.38;5.70;;;;;;;9.44;100.00;99837.72;4926210;29;20501;-82
2021/12/14 11:25:09;;;;;;;11.23;7.00;;;;;;;9.48;100.00;99822.44;4894868;29;20456;-83
2021/12/14 11:27:42;;;;;;;9.32;6.40;;;;;;;9.65;100.00;99823.25;4912186;29;20434;-83
2021/12/14 11:30:37;;;;;;;9.20;5.72;;;;;;;9.75;100.00;99828.28;4907720;29;20553;-82
2021/12/14 11:33:16;;;;;;;10.07;6.07;;;;;;;9.69;100.00;99795.69;4927338;29;20040;-83
2021/12/14 11:35:47;;;;;;;11.38;6.25;;;;;;;9.82;100.00;99819.53;4911291;29;20035;-83
2021/12/14 11:38:41;;;;;;;9.63;5.68;;;;;;;9.83;100.00;99831.69;4924844;29;20047;-82
2021/12/14 11:41:24;;;;;;;7.95;4.57;;;;;;;9.73;100.00;99825.81;4924180;29;20028;-83
2021/12/14 11:43:54;;;;;;;9.70;3.80;;;;;;;9.67;100.00;99821.25;4912899;29;20054;-83
2021/12/14 11:46:20;;;;;;;4.95;3.33;;;;;;;9.70;100.00;99821.72;4895128;29;20082;-83
2021/12/14 11:48:46;;;;;;;9.70;3.90;;;;;;;9.65;100.00;99823.25;4925184;29;20036;-82
2021/12/14 11:51:13;;;;;;;5.78;2.90;;;;;;;9.68;100.00;99828.13;4923775;29;20435;-84
2021/12/14 11:53:46;;;;;;;5.10;2.95;;;;;;;9.78;100.00;99823.50;4927992;29;20115;-84
2021/12/14 11:56:14;;;;;;;;;;;;;;;9.89;100.00;99821.50;4926798;29;20379;-83
2021/12/14 11:58:48;;;;;;;6.72;4.43;;;;;;;9.88;100.00;99812.81;4926142;29;20668;-84
2021/12/14 12:01:26;;;;;;;5.97;3.90;;;;;;;9.88;100.00;99825.13;4909116;29;20154;-84
2021/12/14 12:04:03;;;;;;;8.38;4.60;;;;;;;9.97;100.00;99818.84;4928242;29;20042;-84
2021/12/14 12:09:36;;;;;;;4.70;3.10;;;;;;;10.12;100.00;99819.75;4928841;29;20126;-83
2021/12/14 12:12:05;;;;;;;5.57;3.55;;;;;;;10.18;100.00;99822.66;4910149;29;20046;-83
2021/12/14 12:14:39;;;;;;;8.18;5.07;;;;;;;10.04;100.00;99790.94;4895105;29;20042;-84
2021/12/14 12:17:16;;;;;;;9.75;5.40;;;;;;;10.19;100.00;99809.38;4894459;29;20027;-83
2021/12/14 12:20:13;;;;;;;11.40;6.15;;;;;;;10.20;100.00;99812.81;4912937;29;20038;-83
2021/12/14 12:22:43;;;;;;;13.25;7.43;;;;;;;10.23;100.00;99804.63;4919436;29;20036;-84
2021/12/14 12:25:14;;;;;;;11.80;7.15;;;;;;;10.14;100.00;99788.91;4926696;29;20031;-83
2021/12/14 12:27:50;;;;;;;13.40;6.85;;;;;;;10.25;100.00;99798.19;4926121;29;20042;-83